createdAt,value
2023-03-25T00:03:08.162Z,36
2023-03-25T00:13:07.769Z,32
2023-03-25T00:23:07.599Z,25
2023-03-25T00:33:07.868Z,28
2023-03-25T00:43:07.532Z,35
2023-03-25T00:53:07.456Z,29
2023-03-25T01:03:07.489Z,31
2023-03-25T01:13:07.318Z,48
2023-03-25T01:23:07.131Z,45
2023-03-25T01:33:07.181Z,38
2023-03-25T01:43:07.082Z,29
2023-03-25T01:53:07.035Z,35
2023-03-25T02:03:06.989Z,31
2023-03-25T02:13:06.802Z,39
2023-03-25T02:23:06.811Z,31
2023-03-25T02:33:06.944Z,33
2023-03-25T02:43:06.622Z,36
2023-03-25T02:53:06.497Z,39
2023-03-25T03:03:06.632Z,45
2023-03-25T03:13:06.528Z,47
2023-03-25T03:23:07.281Z,47
2023-03-25T03:33:07.407Z,52
2023-03-25T03:43:06.231Z,42
2023-03-25T03:53:06.118Z,40
2023-03-25T04:03:06.060Z,51
2023-03-25T04:13:05.958Z,54
2023-03-25T04:23:05.842Z,55
2023-03-25T04:33:05.787Z,57
2023-03-25T04:43:05.680Z,67
2023-03-25T04:53:05.777Z,70
2023-03-25T05:03:06.676Z,72
2023-03-25T05:13:05.583Z,76
2023-03-25T05:23:05.374Z,79
2023-03-25T05:33:05.444Z,85
2023-03-25T05:43:05.233Z,89
2023-03-25T05:53:06.051Z,95
2023-03-25T06:03:05.526Z,95
2023-03-25T06:13:05.401Z,98
2023-03-25T06:23:05.039Z,99
2023-03-25T06:33:05.075Z,97
2023-03-25T06:43:04.813Z,99
2023-03-25T06:53:04.966Z,99
2023-03-25T07:03:04.760Z,98
2023-03-25T07:13:04.671Z,99
2023-03-25T07:23:04.521Z,99
2023-03-25T07:33:05.219Z,99
2023-03-25T07:43:04.498Z,99
2023-03-25T07:53:04.536Z,99
2023-03-25T08:03:04.311Z,99
2023-03-25T08:13:04.169Z,99
2023-03-25T08:23:04.256Z,99
2023-03-25T08:33:04.336Z,99
2023-03-25T08:43:03.924Z,99
2023-03-25T08:53:03.956Z,99
2023-03-25T09:03:03.999Z,99
2023-03-25T09:13:03.794Z,99
2023-03-25T09:23:03.656Z,99
2023-03-25T09:33:04.192Z,99
2023-03-25T09:43:03.560Z,99
2023-03-25T09:53:03.420Z,99
2023-03-25T10:03:03.441Z,99
2023-03-25T10:13:03.339Z,99
2023-03-25T10:23:03.347Z,99
2023-03-25T10:33:03.290Z,99
2023-03-25T10:43:03.346Z,99
2023-03-25T10:53:04.111Z,99
2023-03-25T11:03:03.050Z,99
2023-03-25T11:13:03.134Z,99
2023-03-25T11:23:02.775Z,1
2023-03-25T11:33:04.136Z,1
2023-03-25T11:43:02.608Z,1
2023-03-25T11:53:02.781Z,1
2023-03-25T12:03:02.652Z,99
2023-03-25T12:13:02.490Z,99
2023-03-25T12:23:02.366Z,99
2023-03-25T12:33:03.004Z,99
2023-03-25T12:43:02.221Z,99
2023-03-25T12:53:02.217Z,99
2023-03-25T13:03:02.254Z,99
2023-03-25T13:13:02.306Z,99
2023-03-25T13:23:01.909Z,99
2023-03-25T13:33:02.250Z,99
2023-03-25T13:43:01.840Z,99
2023-03-25T13:53:01.728Z,99
2023-03-25T14:03:01.657Z,99
2023-03-25T14:13:01.620Z,99
2023-03-25T14:23:01.466Z,99
2023-03-25T14:33:01.678Z,99
2023-03-25T14:43:01.523Z,99
2023-03-25T14:53:01.328Z,99
2023-03-25T15:03:01.408Z,99
2023-03-25T15:13:01.148Z,99
2023-03-25T15:23:01.158Z,99
2023-03-25T15:33:01.332Z,99
2023-03-25T15:43:01.031Z,99
2023-03-25T15:53:01.177Z,99
2023-03-25T16:03:00.939Z,99
2023-03-25T16:13:00.696Z,99
2023-03-25T16:23:00.601Z,99
2023-03-25T16:33:00.750Z,99
2023-03-25T16:43:00.542Z,99
2023-03-25T16:53:00.448Z,99
2023-03-25T17:03:00.480Z,99
2023-03-25T17:13:00.252Z,99
2023-03-25T17:23:00.223Z,99
2023-03-25T17:33:00.581Z,99
2023-03-25T17:43:00.023Z,99
2023-03-25T17:53:00.019Z,99
2023-03-25T18:03:00.006Z,99
2023-03-25T18:12:59.971Z,99
2023-03-25T18:22:59.734Z,99
2023-03-25T18:33:00.008Z,99
2023-03-25T18:42:59.603Z,99
2023-03-25T18:52:59.561Z,99
2023-03-25T19:02:59.600Z,99
2023-03-25T19:12:59.362Z,99
2023-03-25T19:22:59.366Z,99
2023-03-25T19:32:59.347Z,99
2023-03-25T19:42:59.195Z,99
2023-03-25T19:52:59.177Z,99
2023-03-25T20:02:59.096Z,99
2023-03-25T20:12:58.915Z,99
2023-03-25T20:22:58.890Z,99
2023-03-25T20:32:58.840Z,99
2023-03-25T20:42:58.769Z,99
2023-03-25T20:52:58.682Z,99
2023-03-25T21:02:58.662Z,99
2023-03-25T21:12:58.510Z,99
2023-03-25T21:22:58.486Z,99
2023-03-25T21:32:58.363Z,99
2023-03-25T21:42:58.506Z,99
2023-03-25T21:52:58.334Z,99
2023-03-25T22:02:58.246Z,99
2023-03-25T22:12:58.032Z,96
2023-03-25T22:22:57.964Z,90
2023-03-25T22:32:57.997Z,81
2023-03-25T22:42:57.920Z,77
2023-03-25T22:52:57.841Z,54
2023-03-25T23:02:57.859Z,44
2023-03-25T23:12:57.695Z,44
2023-03-25T23:22:57.578Z,42
2023-03-25T23:32:57.592Z,26
2023-03-25T23:42:57.509Z,25
2023-03-25T23:52:57.371Z,14
